createdAt,value
2019-02-06T00:01:45.305Z,95207.30
2019-02-06T00:04:28.904Z,95215.69
2019-02-06T00:07:02.977Z,95211.86
2019-02-06T00:09:38.147Z,95216.19
2019-02-06T00:12:12.232Z,95213.17
2019-02-06T00:14:47.026Z,95210.94
2019-02-06T00:17:21.083Z,95219.33
2019-02-06T00:19:55.335Z,95230.35
2019-02-06T00:22:29.469Z,95222.69
2019-02-06T00:25:03.395Z,95226.52
2019-02-06T00:27:36.740Z,95229.45
2019-02-06T00:30:11.496Z,95229.84
2019-02-06T00:32:45.961Z,95228.64
2019-02-06T00:35:25.838Z,95230.06
2019-02-06T00:37:56.340Z,95221.56
2019-02-06T00:40:30.683Z,95222.69
2019-02-06T00:43:04.949Z,95234.01
2019-02-06T00:45:38.367Z,95233.70
2019-02-06T00:48:12.458Z,95238.17
2019-02-06T00:50:46.648Z,95230.67
2019-02-06T00:53:20.572Z,95228.13
2019-02-06T00:55:54.431Z,95230.06
2019-02-06T00:58:28.843Z,95228.02
2019-02-06T01:01:10.680Z,95222.18
2019-02-06T01:03:44.942Z,95226.73
2019-02-06T01:06:20.317Z,95220.13
2019-02-06T01:08:54.696Z,95224.59
2019-02-06T01:11:28.924Z,95218.91
2019-02-06T01:14:02.860Z,95211.95
2019-02-06T01:16:36.890Z,95209.02
2019-02-06T01:19:10.531Z,95212.65
2019-02-06T01:21:44.781Z,95210.33
2019-02-06T01:24:18.567Z,95203.65
2019-02-06T01:26:52.692Z,95203.75
2019-02-06T01:29:27.120Z,95199.61
2019-02-06T01:32:01.287Z,95195.78
2019-02-06T01:34:35.540Z,95202.16
2019-02-06T01:37:09.794Z,95198.72
2019-02-06T01:39:43.983Z,95195.47
2019-02-06T01:42:17.875Z,95194.38
2019-02-06T01:44:51.882Z,95195.29
2019-02-06T01:47:25.905Z,95203.17
2019-02-06T01:49:59.840Z,95198.61
2019-02-06T01:52:33.979Z,95196.50
2019-02-06T01:55:09.113Z,95188.09
2019-02-06T01:57:43.453Z,95189.09
2019-02-06T02:00:20.274Z,95188.80
2019-02-06T02:03:06.846Z,95185.86
2019-02-06T02:06:01.983Z,95196.27
2019-02-06T02:08:27.537Z,95188.27
2019-02-06T02:11:01.676Z,95183.12
2019-02-06T02:13:49.714Z,95185.64
2019-02-06T02:16:24.945Z,95177.34
2019-02-06T02:18:59.013Z,95178.82
2019-02-06T02:21:33.128Z,95182.03
2019-02-06T02:24:06.717Z,95175.27
2019-02-06T02:26:43.186Z,95169.44
2019-02-06T02:29:17.743Z,95170.33
2019-02-06T02:31:51.888Z,95166.61
2019-02-06T02:34:25.846Z,95163.05
2019-02-06T02:36:59.977Z,95157.09
2019-02-06T02:39:43.208Z,95155.27
2019-02-06T02:42:17.410Z,95140.20
2019-02-06T02:44:51.147Z,95134.72
2019-02-06T02:47:25.006Z,95135.38
2019-02-06T02:49:59.166Z,95134.70
2019-02-06T02:52:33.809Z,95130.70
2019-02-06T02:55:08.459Z,95131.31
2019-02-06T02:57:42.948Z,95131.94
2019-02-06T03:00:23.437Z,95130.73
2019-02-06T03:03:24.029Z,95135.07
2019-02-06T03:05:58.505Z,95125.80
2019-02-06T03:08:32.816Z,95137.04
2019-02-06T03:11:06.933Z,95127.34
2019-02-06T03:13:42.285Z,95123.41
2019-02-06T03:16:16.587Z,95131.59
2019-02-06T03:18:51.116Z,95127.92
2019-02-06T03:21:25.133Z,95145.92
2019-02-06T03:24:03.934Z,95135.30
2019-02-06T03:26:38.453Z,95131.52
2019-02-06T03:29:12.617Z,95134.83
2019-02-06T03:31:46.699Z,95136.22
2019-02-06T03:34:20.809Z,95140.02
2019-02-06T03:36:54.819Z,95135.59
2019-02-06T03:39:29.082Z,95137.28
2019-02-06T03:42:03.462Z,95123.20
2019-02-06T03:44:38.010Z,95121.76
2019-02-06T03:47:12.446Z,95126.70
2019-02-06T03:49:48.252Z,95122.03
2019-02-06T03:52:21.907Z,95120.28
2019-02-06T03:54:57.122Z,95123.27
2019-02-06T03:57:31.285Z,95135.22
2019-02-06T04:00:06.431Z,95140.06
2019-02-06T04:02:40.960Z,95124.45
2019-02-06T04:05:26.918Z,95117.58
2019-02-06T04:08:11.737Z,95118.08
2019-02-06T04:10:46.417Z,95127.57
2019-02-06T04:13:32.094Z,95123.00
2019-02-06T04:16:06.591Z,95115.14
2019-02-06T04:18:40.818Z,95120.94
2019-02-06T04:21:15.005Z,95129.14
2019-02-06T04:23:50.325Z,95125.14
2019-02-06T04:26:24.544Z,95134.75
2019-02-06T04:28:58.560Z,95127.07
2019-02-06T04:31:32.873Z,95120.63
2019-02-06T04:34:06.929Z,95136.38
2019-02-06T04:36:41.482Z,95132.58
2019-02-06T04:39:15.203Z,95128.02
2019-02-06T04:41:49.343Z,95134.81
2019-02-06T04:44:23.426Z,95138.87
2019-02-06T04:46:57.272Z,95141.78
2019-02-06T04:49:31.189Z,95142.19
2019-02-06T04:52:06.360Z,95154.11
2019-02-06T04:54:52.047Z,95147.27
2019-02-06T04:57:38.700Z,95150.44
2019-02-06T05:00:24.596Z,95145.08
2019-02-06T05:03:10.375Z,95147.48
2019-02-06T05:05:56.315Z,95155.44
2019-02-06T05:08:42.875Z,95151.21
2019-02-06T05:11:21.661Z,95155.27
2019-02-06T05:13:57.311Z,95158.52
2019-02-06T05:16:31.500Z,95166.50
2019-02-06T05:19:05.767Z,95165.27
2019-02-06T05:21:40.004Z,95161.20
2019-02-06T05:24:14.259Z,95170.59
2019-02-06T05:26:48.503Z,95163.63
2019-02-06T05:29:23.566Z,95179.18
2019-02-06T05:31:57.732Z,95181.08
2019-02-06T05:34:32.666Z,95178.77
2019-02-06T05:37:07.081Z,95178.20
2019-02-06T05:39:41.238Z,95172.96
2019-02-06T05:42:15.572Z,95174.50
2019-02-06T05:44:50.049Z,95175.64
2019-02-06T05:47:25.845Z,95178.51
2019-02-06T05:50:01.233Z,95183.95
2019-02-06T05:52:35.002Z,95184.58
2019-02-06T05:55:09.629Z,95191.30
2019-02-06T05:57:43.947Z,95193.45
2019-02-06T06:00:22.872Z,95200.64
2019-02-06T06:02:58.201Z,95192.27
2019-02-06T06:05:42.216Z,95196.84
2019-02-06T06:08:16.673Z,95204.52
2019-02-06T06:10:51.119Z,95214.95
2019-02-06T06:13:25.341Z,95216.44
2019-02-06T06:15:59.773Z,95207.32
2019-02-06T06:18:33.966Z,95202.69
2019-02-06T06:21:08.298Z,95203.91
2019-02-06T06:23:44.316Z,95202.20
2019-02-06T06:26:18.636Z,95199.69
2019-02-06T06:28:54.256Z,95213.33
2019-02-06T06:31:28.422Z,95211.32
2019-02-06T06:34:02.749Z,95225.00
2019-02-06T06:36:37.668Z,95222.02
2019-02-06T06:39:11.697Z,95226.77
2019-02-06T06:41:46.142Z,95232.33
2019-02-06T06:44:20.860Z,95224.06
2019-02-06T06:47:09.941Z,95237.20
2019-02-06T06:49:45.753Z,95224.16
2019-02-06T06:52:19.955Z,95218.09
2019-02-06T06:54:54.483Z,95221.83
2019-02-06T06:57:28.559Z,95216.14
2019-02-06T07:00:03.633Z,95211.83
2019-02-06T07:02:37.816Z,95206.19
2019-02-06T07:05:12.143Z,95200.22
2019-02-06T07:07:46.595Z,95202.94
2019-02-06T07:10:21.385Z,95209.31
2019-02-06T07:12:56.076Z,95207.59
2019-02-06T07:15:36.908Z,95206.63
2019-02-06T07:18:11.341Z,95209.95
2019-02-06T07:20:46.431Z,95206.71
2019-02-06T07:23:21.036Z,95210.89
2019-02-06T07:25:55.584Z,95208.03
2019-02-06T07:28:41.995Z,95206.99
2019-02-06T07:31:25.512Z,95208.11
2019-02-06T07:33:59.811Z,95209.93
2019-02-06T07:36:39.907Z,95209.81
2019-02-06T07:39:14.442Z,95208.88
2019-02-06T07:41:50.474Z,95211.86
2019-02-06T07:44:23.843Z,95207.67
2019-02-06T07:46:58.118Z,95202.53
2019-02-06T07:49:32.852Z,95200.63
2019-02-06T07:52:07.492Z,95205.28
2019-02-06T07:54:41.936Z,95202.55
2019-02-06T07:57:16.378Z,95207.13
2019-02-06T07:59:50.391Z,95207.70
2019-02-06T08:02:25.345Z,95209.55
2019-02-06T08:04:59.603Z,95210.73
2019-02-06T08:07:34.407Z,95212.08
2019-02-06T08:10:11.638Z,95214.09
2019-02-06T08:12:46.266Z,95213.48
2019-02-06T08:15:21.607Z,95229.75
2019-02-06T08:17:55.859Z,95221.07
2019-02-06T08:20:30.500Z,95233.81
2019-02-06T08:23:04.730Z,95236.05
2019-02-06T08:25:39.063Z,95236.45
2019-02-06T08:28:13.457Z,95243.73
2019-02-06T08:30:59.002Z,95253.75
2019-02-06T08:33:45.522Z,95249.10
2019-02-06T08:36:33.181Z,95245.84
2019-02-06T08:39:11.476Z,95248.09
2019-02-06T08:41:45.751Z,95251.72
2019-02-06T08:44:21.655Z,95243.93
2019-02-06T08:46:56.104Z,95249.41
2019-02-06T08:49:31.306Z,95243.13
2019-02-06T08:52:05.861Z,95247.48
2019-02-06T08:54:51.555Z,95242.89
2019-02-06T08:57:28.040Z,95249.59
2019-02-06T09:00:02.619Z,95256.38
2019-02-06T09:02:38.269Z,95246.87
2019-02-06T09:05:12.853Z,95252.83
2019-02-06T09:07:47.594Z,95256.99
2019-02-06T09:10:23.027Z,95264.47
2019-02-06T09:12:57.136Z,95261.31
2019-02-06T09:15:31.076Z,95258.25
2019-02-06T09:18:07.378Z,95266.66
2019-02-06T09:20:41.680Z,95268.48
2019-02-06T09:23:16.190Z,95271.52
2019-02-06T09:25:50.649Z,95269.59
2019-02-06T09:28:24.860Z,95266.46
2019-02-06T09:30:59.311Z,95265.52
2019-02-06T09:33:33.719Z,95274.74
2019-02-06T09:36:08.261Z,95270.89
2019-02-06T09:38:43.021Z,95274.74
2019-02-06T09:41:20.062Z,95281.13
2019-02-06T09:43:54.299Z,95278.79
2019-02-06T09:46:28.448Z,95280.08
2019-02-06T09:49:03.311Z,95279.60
2019-02-06T09:51:37.655Z,95286.48
2019-02-06T09:54:12.409Z,95295.23
2019-02-06T09:56:58.081Z,95288.42
2019-02-06T09:59:41.692Z,95288.22
2019-02-06T10:08:44.671Z,95278.82
2019-02-06T10:11:29.051Z,95276.13
2019-02-06T10:14:28.039Z,95271.50
2019-02-06T10:17:30.303Z,95259.70
2019-02-06T10:20:16.993Z,95265.55
2019-02-06T10:23:05.571Z,95259.60
2019-02-06T10:25:53.914Z,95259.02
2019-02-06T10:28:35.412Z,95250.61
2019-02-06T10:31:24.707Z,95256.02
2019-02-06T10:33:59.909Z,95254.42
2019-02-06T10:36:45.257Z,95253.77
2019-02-06T10:39:19.636Z,95251.90
2019-02-06T10:41:54.062Z,95247.13
2019-02-06T10:44:28.024Z,95247.78
2019-02-06T10:47:03.431Z,95256.27
2019-02-06T10:49:38.097Z,95254.28
2019-02-06T10:52:12.765Z,95248.73
2019-02-06T10:54:47.084Z,95249.77
2019-02-06T10:57:21.968Z,95252.15
2019-02-06T10:59:57.580Z,95245.87
2019-02-06T11:02:34.644Z,95247.20
2019-02-06T11:05:10.663Z,95249.16
2019-02-06T11:07:46.191Z,95243.03
2019-02-06T11:10:22.244Z,95239.80
2019-02-06T11:12:57.617Z,95239.02
2019-02-06T11:15:32.493Z,95231.57
2019-02-06T11:18:09.892Z,95233.80
2019-02-06T11:20:44.682Z,95234.09
2019-02-06T11:23:18.613Z,95226.34
2019-02-06T11:32:19.696Z,95228.02
2019-02-06T11:35:03.432Z,95233.91
2019-02-06T11:37:37.814Z,95240.83
2019-02-06T11:40:16.869Z,95237.73
2019-02-06T11:42:51.146Z,95239.37
2019-02-06T11:45:39.205Z,95242.83
2019-02-06T11:48:13.901Z,95244.48
2019-02-06T11:50:48.097Z,95251.58
2019-02-06T11:53:26.516Z,95242.87
2019-02-06T11:56:00.752Z,95242.19
2019-02-06T11:58:34.969Z,95240.50
2019-02-06T12:01:41.922Z,95243.21
2019-02-06T12:04:16.394Z,95239.95
2019-02-06T12:07:00.699Z,95237.76
2019-02-06T12:09:41.489Z,95237.25
2019-02-06T12:12:15.888Z,95227.70
2019-02-06T12:14:51.350Z,95219.80
2019-02-06T12:17:25.960Z,95226.98
2019-02-06T12:20:00.279Z,95234.28
2019-02-06T12:22:34.582Z,95239.02
2019-02-06T12:25:09.722Z,95233.24
2019-02-06T12:27:45.245Z,95235.95
2019-02-06T12:30:29.631Z,95230.17
2019-02-06T12:33:04.269Z,95233.81
2019-02-06T12:35:38.573Z,95227.53
2019-02-06T12:38:12.568Z,95228.91
2019-02-06T12:40:47.564Z,95223.72
2019-02-06T12:43:23.117Z,95222.33
2019-02-06T12:45:58.603Z,95224.78
2019-02-06T12:48:33.672Z,95231.05
2019-02-06T12:51:08.172Z,95235.82
2019-02-06T12:53:42.756Z,95234.92
2019-02-06T12:56:29.201Z,95235.44
2019-02-06T12:59:13.094Z,95234.83
2019-02-06T13:01:47.482Z,95226.10
2019-02-06T13:04:23.547Z,95218.14
2019-02-06T13:07:00.237Z,95225.00
2019-02-06T13:09:34.985Z,95231.28
2019-02-06T13:12:09.407Z,95244.45
2019-02-06T13:14:43.740Z,95236.92
2019-02-06T13:17:18.351Z,95240.44
2019-02-06T13:19:52.716Z,95237.36
2019-02-06T13:22:27.299Z,95246.17
2019-02-06T13:25:01.707Z,95251.98
2019-02-06T13:27:37.102Z,95244.30
2019-02-06T13:30:22.842Z,95254.34
2019-02-06T13:33:11.731Z,95257.58
2019-02-06T13:35:57.493Z,95259.21
2019-02-06T13:38:41.327Z,95263.66
2019-02-06T13:41:16.420Z,95261.86
2019-02-06T13:43:50.820Z,95262.36
2019-02-06T13:46:25.038Z,95255.36
2019-02-06T13:49:02.429Z,95262.95
2019-02-06T13:51:36.890Z,95267.09
2019-02-06T13:54:11.185Z,95268.83
2019-02-06T13:56:45.698Z,95264.80
2019-02-06T13:59:20.577Z,95268.42
2019-02-06T14:01:55.101Z,95269.95
2019-02-06T14:04:29.397Z,95271.27
2019-02-06T14:07:03.819Z,95271.46
2019-02-06T14:09:38.465Z,95273.06
2019-02-06T14:12:13.651Z,95272.16
2019-02-06T14:14:47.981Z,95265.78
2019-02-06T14:17:23.156Z,95275.09
2019-02-06T14:19:57.510Z,95285.02
2019-02-06T14:22:31.760Z,95279.95
2019-02-06T14:25:21.432Z,95285.02
2019-02-06T14:28:09.248Z,95287.95
2019-02-06T14:31:14.656Z,95289.98
2019-02-06T14:34:19.131Z,95290.68
2019-02-06T14:37:37.900Z,95290.70
2019-02-06T14:40:52.508Z,95285.44
2019-02-06T14:43:48.683Z,95288.14
2019-02-06T14:47:04.243Z,95291.17
2019-02-06T14:50:02.747Z,95285.11
2019-02-06T14:53:13.643Z,95289.22
2019-02-06T14:56:14.190Z,95286.70
2019-02-06T14:59:50.745Z,95285.91
2019-02-06T15:03:18.000Z,95294.00
2019-02-06T15:06:15.314Z,95297.22
2019-02-06T15:09:01.542Z,95291.23
2019-02-06T15:11:50.652Z,95292.89
2019-02-06T15:14:35.214Z,95289.94
2019-02-06T15:17:21.091Z,95295.56
2019-02-06T15:20:38.361Z,95286.67
2019-02-06T15:23:50.761Z,95283.73
2019-02-06T15:27:07.478Z,95277.98
2019-02-06T15:30:15.666Z,95269.08
2019-02-06T15:33:32.003Z,95261.11
2019-02-06T15:36:48.671Z,95265.25
2019-02-06T15:40:12.773Z,95264.44
2019-02-06T15:43:37.575Z,95262.52
2019-02-06T15:46:46.595Z,95253.81
2019-02-06T15:50:11.334Z,95261.11
2019-02-06T15:53:09.741Z,95258.45
2019-02-06T15:56:18.448Z,95262.28
2019-02-06T15:59:28.625Z,95260.97
2019-02-06T16:02:52.613Z,95260.89
2019-02-06T16:06:13.409Z,95269.36
2019-02-06T16:09:21.357Z,95274.16
2019-02-06T16:12:12.292Z,95277.16
2019-02-06T16:15:12.392Z,95280.17
2019-02-06T16:18:29.207Z,95288.69
2019-02-06T16:21:32.625Z,95281.25
2019-02-06T16:24:45.460Z,95295.55
2019-02-06T16:27:37.894Z,95299.38
2019-02-06T16:31:03.908Z,95297.27
2019-02-06T16:34:02.355Z,95304.24
2019-02-06T16:36:58.364Z,95307.34
2019-02-06T16:39:46.293Z,95308.11
2019-02-06T16:43:01.223Z,95312.83
2019-02-06T16:46:32.474Z,95318.30
2019-02-06T16:49:25.804Z,95326.45
2019-02-06T16:52:25.761Z,95325.13
2019-02-06T16:55:30.703Z,95326.41
2019-02-06T16:58:35.891Z,95323.85
2019-02-06T17:02:06.844Z,95331.98
2019-02-06T17:05:05.119Z,95341.06
2019-02-06T17:08:36.397Z,95332.50
2019-02-06T17:12:04.607Z,95334.45
2019-02-06T17:15:15.970Z,95334.59
2019-02-06T17:18:27.945Z,95339.06
2019-02-06T17:21:48.749Z,95339.13
2019-02-06T17:24:51.900Z,95341.69
2019-02-06T17:28:04.215Z,95350.78
2019-02-06T17:31:22.800Z,95351.85
2019-02-06T17:34:39.920Z,95356.16
2019-02-06T17:38:03.349Z,95360.00
2019-02-06T17:41:34.665Z,95367.83
2019-02-06T17:44:27.656Z,95375.31
2019-02-06T17:47:28.739Z,95376.70
2019-02-06T17:50:44.377Z,95386.20
2019-02-06T17:53:48.149Z,95384.54
2019-02-06T17:56:24.318Z,95387.17
2019-02-06T17:58:59.622Z,95389.73
2019-02-06T18:01:55.447Z,95393.98
2019-02-06T18:04:32.390Z,95395.11
2019-02-06T18:07:08.225Z,95401.06
2019-02-06T18:09:52.380Z,95403.77
2019-02-06T18:12:32.510Z,95402.08
2019-02-06T18:15:07.656Z,95412.48
2019-02-06T18:17:44.250Z,95409.23
2019-02-06T18:20:19.232Z,95414.64
2019-02-06T18:22:53.706Z,95418.62
2019-02-06T18:25:28.169Z,95412.69
2019-02-06T18:28:04.073Z,95416.34
2019-02-06T18:30:39.105Z,95411.09
2019-02-06T18:33:18.736Z,95416.79
2019-02-06T18:35:51.938Z,95421.27
2019-02-06T18:38:26.390Z,95423.30
2019-02-06T18:41:01.163Z,95419.50
2019-02-06T18:43:35.706Z,95422.98
2019-02-06T18:46:10.307Z,95423.94
2019-02-06T18:48:45.262Z,95425.74
2019-02-06T18:51:19.640Z,95432.25
2019-02-06T18:53:54.134Z,95428.71
2019-02-06T18:56:28.434Z,95435.02
2019-02-06T18:59:15.073Z,95435.47
2019-02-06T19:02:01.064Z,95439.08
2019-02-06T19:04:45.486Z,95441.45
2019-02-06T19:07:29.224Z,95437.70
2019-02-06T19:10:03.685Z,95443.81
2019-02-06T19:12:50.712Z,95443.81
2019-02-06T19:15:24.310Z,95440.48
2019-02-06T19:17:58.658Z,95442.92
2019-02-06T19:20:35.703Z,95450.03
2019-02-06T19:23:09.502Z,95450.64
2019-02-06T19:25:44.903Z,95455.94
2019-02-06T19:28:19.358Z,95454.91
2019-02-06T19:30:55.637Z,95457.31
2019-02-06T19:33:29.719Z,95459.66
2019-02-06T19:36:14.212Z,95458.13
2019-02-06T19:39:02.392Z,95458.49
2019-02-06T19:41:52.426Z,95462.66
2019-02-06T19:44:38.948Z,95460.61
2019-02-06T19:47:14.583Z,95462.76
2019-02-06T19:49:49.225Z,95465.13
2019-02-06T19:52:23.878Z,95473.84
2019-02-06T19:54:59.929Z,95478.64
2019-02-06T19:57:34.729Z,95474.05
2019-02-06T20:00:13.294Z,95476.27
2019-02-06T20:02:48.440Z,95477.69
2019-02-06T20:05:23.314Z,95474.89
2019-02-06T20:07:57.793Z,95474.32
2019-02-06T20:10:43.929Z,95479.78
2019-02-06T20:13:18.292Z,95475.77
2019-02-06T20:15:52.722Z,95480.08
2019-02-06T20:18:27.241Z,95484.67
2019-02-06T20:21:01.646Z,95477.98
2019-02-06T20:23:35.954Z,95481.53
2019-02-06T20:26:09.908Z,95487.13
2019-02-06T20:28:46.862Z,95488.08
2019-02-06T20:31:22.100Z,95489.98
2019-02-06T20:33:57.803Z,95493.91
2019-02-06T20:36:40.523Z,95490.26
2019-02-06T20:39:15.066Z,95495.39
2019-02-06T20:41:49.360Z,95486.63
2019-02-06T20:44:23.820Z,95488.41
2019-02-06T20:47:00.556Z,95495.49
2019-02-06T20:49:35.627Z,95492.41
2019-02-06T20:52:10.554Z,95489.68
2019-02-06T20:54:46.280Z,95497.96
2019-02-06T20:57:20.185Z,95489.45
2019-02-06T20:59:54.710Z,95485.31
2019-02-06T21:02:37.872Z,95492.12
2019-02-06T21:05:13.344Z,95491.74
2019-02-06T21:07:47.634Z,95485.23
2019-02-06T21:10:23.822Z,95482.14
2019-02-06T21:12:58.315Z,95484.53
2019-02-06T21:15:34.450Z,95472.25
2019-02-06T21:18:09.054Z,95474.44
2019-02-06T21:20:43.371Z,95466.76
2019-02-06T21:23:19.453Z,95472.86
2019-02-06T21:25:54.238Z,95471.61
2019-02-06T21:28:31.014Z,95464.92
2019-02-06T21:31:05.757Z,95467.07
2019-02-06T21:33:40.047Z,95467.07
2019-02-06T21:36:15.585Z,95473.84
2019-02-06T21:38:49.874Z,95466.14
2019-02-06T21:41:23.974Z,95473.70
2019-02-06T21:43:59.491Z,95466.98
2019-02-06T21:46:33.704Z,95472.36
2019-02-06T21:49:08.293Z,95476.61
2019-02-06T21:51:42.062Z,95478.70
2019-02-06T21:54:20.322Z,95476.90
2019-02-06T21:56:55.014Z,95474.89
2019-02-06T21:59:29.255Z,95480.63
2019-02-06T22:02:03.523Z,95481.13
2019-02-06T22:04:37.688Z,95479.23
2019-02-06T22:07:12.007Z,95489.87
2019-02-06T22:09:46.221Z,95495.44
2019-02-06T22:12:32.794Z,95492.97
2019-02-06T22:15:11.199Z,95492.98
2019-02-06T22:17:45.338Z,95489.77
2019-02-06T22:20:20.033Z,95490.14
2019-02-06T22:22:56.664Z,95488.11
2019-02-06T22:25:30.788Z,95488.98
2019-02-06T22:28:04.906Z,95490.75
2019-02-06T22:30:38.961Z,95494.36
2019-02-06T22:33:13.348Z,95491.47
2019-02-06T22:35:47.672Z,95487.02
2019-02-06T22:38:24.371Z,95488.50
2019-02-06T22:40:58.672Z,95493.67
2019-02-06T22:43:35.800Z,95490.16
2019-02-06T22:46:09.675Z,95490.95
2019-02-06T22:48:43.706Z,95490.98
2019-02-06T22:51:19.034Z,95491.23
2019-02-06T22:53:53.351Z,95487.73
2019-02-06T22:56:27.807Z,95483.48
2019-02-06T22:59:01.571Z,95482.03
2019-02-06T23:01:48.566Z,95478.59
2019-02-06T23:04:23.583Z,95474.37
2019-02-06T23:06:57.787Z,95476.84
2019-02-06T23:09:32.209Z,95478.03
2019-02-06T23:12:16.202Z,95480.71
2019-02-06T23:15:00.995Z,95478.30
2019-02-06T23:17:47.375Z,95475.75
2019-02-06T23:20:34.010Z,95474.27
2019-02-06T23:23:18.604Z,95467.23
2019-02-06T23:25:52.777Z,95468.47
2019-02-06T23:28:28.170Z,95463.30
2019-02-06T23:31:01.774Z,95461.02
2019-02-06T23:33:36.997Z,95458.09
2019-02-06T23:36:26.206Z,95460.13
2019-02-06T23:39:00.523Z,95461.83
2019-02-06T23:41:36.013Z,95466.14
2019-02-06T23:44:12.340Z,95467.50
2019-02-06T23:46:46.860Z,95466.13
2019-02-06T23:49:20.855Z,95465.28
2019-02-06T23:51:55.107Z,95469.70
2019-02-06T23:54:29.241Z,95473.17
2019-02-06T23:57:03.638Z,95475.56
2019-02-06T23:59:37.864Z,95473.94
